Time;durP1;ratioP1;P1;durP2;ratioP2;P2;SDS_P1;SDS_P2;PMS_P1;PMS_P2;Temp;Humidity;BMP_temperature;BMP_pressure;BME280_temperature;BME280_humidity;BME280_pressure;Samples;Min_cycle;Max_cycle;Signal;HPM_P1;HPM_P2
2021/10/29 00:01:55;;;;;;;3.87;2.80;;;8.10;64.90;;;;;;5041104;28;20017;-86
2021/10/29 00:04:21;;;;;;;4.00;2.63;;;8.10;65.10;;;;;;5043945;28;20017;-85
2021/10/29 00:06:47;;;;;;;6.03;2.30;;;8.00;65.00;;;;;;5035419;28;20151;-85
2021/10/29 00:09:12;;;;;;;3.57;2.40;;;8.10;65.00;;;;;;5051955;28;20116;-85
2021/10/29 00:11:39;;;;;;;4.53;2.47;;;8.10;64.80;;;;;;5050845;28;20395;-85
2021/10/29 00:14:05;;;;;;;4.70;2.40;;;8.10;64.70;;;;;;5035354;28;20037;-85
2021/10/29 00:16:30;;;;;;;4.97;2.53;;;8.00;64.60;;;;;;5028558;28;20033;-86
2021/10/29 00:18:56;;;;;;;4.53;2.77;;;8.00;64.70;;;;;;5036818;28;20029;-85
2021/10/29 00:21:22;;;;;;;5.90;2.80;;;8.00;64.90;;;;;;5037630;28;20480;-85
2021/10/29 00:23:47;;;;;;;5.73;2.50;;;8.00;65.00;;;;;;5040768;28;20037;-86
2021/10/29 00:26:13;;;;;;;4.20;2.43;;;7.90;65.00;;;;;;5039130;28;20554;-86
2021/10/29 00:28:39;;;;;;;3.20;1.87;;;7.90;65.00;;;;;;5035344;28;20037;-86
2021/10/29 00:31:05;;;;;;;4.70;2.80;;;7.90;65.30;;;;;;5035973;28;20047;-86
2021/10/29 00:33:31;;;;;;;6.87;3.07;;;7.90;65.30;;;;;;5054579;28;20061;-86
2021/10/29 00:35:56;;;;;;;3.90;2.53;;;7.90;65.30;;;;;;5034677;28;20068;-86
2021/10/29 00:38:22;;;;;;;5.07;2.33;;;7.80;65.30;;;;;;5029399;28;20112;-86
2021/10/29 00:40:48;;;;;;;6.07;2.30;;;7.80;65.50;;;;;;5026711;28;20038;-86
2021/10/29 00:43:14;;;;;;;9.30;2.37;;;7.80;66.00;;;;;;5029307;28;20111;-86
2021/10/29 00:45:41;;;;;;;3.97;2.37;;;7.70;65.40;;;;;;5035205;28;20037;-86
2021/10/29 00:48:08;;;;;;;2.97;1.80;;;7.70;65.60;;;;;;5023392;28;20044;-86
2021/10/29 00:50:34;;;;;;;4.40;2.00;;;7.70;65.60;;;;;;5030543;28;20044;-86
2021/10/29 00:53:00;;;;;;;7.23;2.73;;;7.70;65.60;;;;;;5036461;28;20415;-86
2021/10/29 00:55:26;;;;;;;3.70;2.30;;;7.70;65.60;;;;;;5035189;28;20033;-86
2021/10/29 00:57:52;;;;;;;5.43;3.07;;;7.70;65.50;;;;;;5041817;28;20035;-86
2021/10/29 01:00:19;;;;;;;11.37;2.97;;;7.70;65.60;;;;;;5049727;28;20476;-86
2021/10/29 01:02:45;;;;;;;4.87;2.93;;;7.60;65.60;;;;;;5036392;28;20040;-86
2021/10/29 01:05:10;;;;;;;9.40;3.40;;;7.60;65.50;;;;;;5035462;28;20029;-86
2021/10/29 01:07:37;;;;;;;7.17;4.13;;;7.60;65.70;;;;;;5052792;28;20029;-86
2021/10/29 01:10:05;;;;;;;6.10;2.50;;;7.50;65.80;;;;;;5033784;28;20049;-85
2021/10/29 01:12:31;;;;;;;6.40;3.30;;;7.50;65.90;;;;;;5034446;28;20079;-86
2021/10/29 01:14:58;;;;;;;7.43;2.90;;;7.50;65.90;;;;;;5036860;28;20032;-86
2021/10/29 01:17:24;;;;;;;6.53;2.43;;;7.50;65.70;;;;;;5033237;28;20171;-86
2021/10/29 01:19:53;;;;;;;4.60;2.00;;;7.50;65.70;;;;;;5038912;28;20102;-86
2021/10/29 01:22:20;;;;;;;6.17;2.60;;;7.50;65.70;;;;;;5046876;28;20021;-86
2021/10/29 01:24:46;;;;;;;3.63;2.23;;;7.40;65.70;;;;;;5036944;28;20053;-86
2021/10/29 01:27:13;;;;;;;4.57;2.37;;;7.40;66.00;;;;;;5033852;28;20029;-86
2021/10/29 01:29:39;;;;;;;4.73;2.30;;;7.40;66.00;;;;;;5034423;28;20391;-86
2021/10/29 01:32:07;;;;;;;4.97;2.43;;;7.40;66.00;;;;;;5034070;28;20048;-86
2021/10/29 01:34:37;;;;;;;5.73;2.13;;;7.30;66.10;;;;;;5034486;28;20083;-86
2021/10/29 01:37:08;;;;;;;6.60;3.23;;;7.30;66.10;;;;;;5042587;28;20039;-86
2021/10/29 01:39:35;;;;;;;3.73;2.30;;;7.30;65.90;;;;;;5034235;28;20032;-86
2021/10/29 01:42:01;;;;;;;9.07;2.13;;;7.20;66.10;;;;;;5038078;28;20445;-86
2021/10/29 01:44:28;;;;;;;5.50;2.10;;;7.20;66.40;;;;;;5033290;28;20025;-86
2021/10/29 01:46:53;;;;;;;5.70;2.00;;;7.20;66.40;;;;;;5031788;28;20026;-86
2021/10/29 01:49:20;;;;;;;6.13;2.07;;;7.20;66.50;;;;;;5055102;28;20468;-86
2021/10/29 01:51:45;;;;;;;2.93;1.93;;;7.10;66.80;;;;;;5034889;28;20029;-86
2021/10/29 01:54:12;;;;;;;4.73;2.03;;;7.10;66.60;;;;;;5032362;28;20025;-86
2021/10/29 01:56:38;;;;;;;4.70;1.90;;;7.20;66.60;;;;;;5050164;28;20033;-86
2021/10/29 01:59:04;;;;;;;4.70;1.93;;;7.20;66.40;;;;;;5028410;28;20028;-86
2021/10/29 02:01:30;;;;;;;3.67;2.03;;;7.10;66.10;;;;;;5030975;28;20047;-86
2021/10/29 02:03:56;;;;;;;6.03;3.10;;;7.10;66.10;;;;;;5033241;28;20182;-86
2021/10/29 02:06:22;;;;;;;4.03;3.13;;;7.10;66.40;;;;;;5031810;28;20773;-86
2021/10/29 02:08:48;;;;;;;7.57;3.13;;;7.10;66.20;;;;;;5033353;28;20123;-86
2021/10/29 02:11:14;;;;;;;7.90;3.00;;;7.10;66.30;;;;;;5053234;28;20029;-86
2021/10/29 02:13:40;;;;;;;5.00;3.00;;;7.10;66.60;;;;;;5027981;28;20459;-86
2021/10/29 02:16:06;;;;;;;7.37;3.57;;;7.10;66.40;;;;;;5027385;28;20634;-86
2021/10/29 02:18:32;;;;;;;5.63;3.47;;;7.10;66.40;;;;;;5036882;28;20392;-86
2021/10/29 02:20:58;;;;;;;7.97;4.07;;;7.00;66.50;;;;;;5055603;28;20035;-86
2021/10/29 02:23:24;;;;;;;5.23;2.80;;;7.00;66.40;;;;;;5038665;28;20172;-86
2021/10/29 02:25:50;;;;;;;7.30;3.20;;;7.00;66.70;;;;;;5038331;28;20025;-86
2021/10/29 02:28:18;;;;;;;7.00;3.20;;;6.90;66.70;;;;;;5047582;28;20507;-86
2021/10/29 02:30:45;;;;;;;8.93;4.53;;;6.90;66.90;;;;;;5025056;28;20029;-86
2021/10/29 02:33:11;;;;;;;10.53;5.97;;;6.80;67.00;;;;;;5045481;28;20037;-86
2021/10/29 02:35:37;;;;;;;10.07;6.77;;;6.90;67.00;;;;;;5049559;28;20033;-86
2021/10/29 02:38:03;;;;;;;11.90;5.40;;;6.80;66.80;;;;;;5035343;28;20044;-86
2021/10/29 02:40:29;;;;;;;9.17;5.40;;;6.80;67.00;;;;;;5039672;28;20635;-86
2021/10/29 02:42:55;;;;;;;9.87;4.83;;;6.80;67.00;;;;;;5038737;28;20029;-86
2021/10/29 02:45:21;;;;;;;9.60;5.70;;;6.80;66.80;;;;;;5038113;28;20164;-86
2021/10/29 02:47:48;;;;;;;8.63;5.53;;;6.70;67.00;;;;;;5034484;28;20128;-86
2021/10/29 02:50:15;;;;;;;10.37;4.23;;;6.70;67.20;;;;;;5037536;28;20036;-85
2021/10/29 02:52:42;;;;;;;10.43;5.93;;;6.70;67.20;;;;;;5047888;28;20123;-86
2021/10/29 02:55:08;;;;;;;10.43;5.73;;;6.70;67.20;;;;;;5028933;28;20021;-86
2021/10/29 02:57:35;;;;;;;7.73;4.77;;;6.70;67.30;;;;;;5054667;28;20029;-85
2021/10/29 03:00:01;;;;;;;11.30;5.23;;;6.70;67.40;;;;;;5036611;28;20508;-86
2021/10/29 03:02:26;;;;;;;7.23;5.23;;;6.70;67.40;;;;;;5039099;28;20033;-85
2021/10/29 03:04:52;;;;;;;11.50;4.70;;;6.70;67.50;;;;;;5053981;28;20025;-85
2021/10/29 03:07:18;;;;;;;7.63;4.90;;;6.70;67.50;;;;;;5037148;28;20037;-85
2021/10/29 03:09:43;;;;;;;8.40;4.90;;;6.70;67.50;;;;;;5056617;28;20124;-85
2021/10/29 03:12:09;;;;;;;6.17;3.40;;;6.70;67.40;;;;;;5036213;28;20475;-86
2021/10/29 03:14:35;;;;;;;6.43;3.53;;;6.70;67.50;;;;;;5037985;28;20855;-85
2021/10/29 03:17:01;;;;;;;5.50;3.43;;;6.70;67.40;;;;;;5035524;28;20041;-85
2021/10/29 03:19:26;;;;;;;5.70;3.07;;;6.80;67.50;;;;;;5032148;28;20447;-85
2021/10/29 03:21:52;;;;;;;5.83;3.70;;;6.80;67.20;;;;;;5047500;28;20025;-85
2021/10/29 03:24:18;;;;;;;5.17;2.87;;;6.70;67.00;;;;;;5035512;28;20074;-85
2021/10/29 03:26:43;;;;;;;7.50;3.20;;;6.70;67.00;;;;;;5036003;28;20029;-86
2021/10/29 03:29:09;;;;;;;5.23;2.73;;;6.60;67.00;;;;;;5036742;28;20037;-85
2021/10/29 03:31:35;;;;;;;6.67;3.07;;;6.60;67.40;;;;;;5061181;28;20048;-86
2021/10/29 03:34:01;;;;;;;7.30;3.30;;;6.70;67.40;;;;;;5037230;28;20028;-86
2021/10/29 03:36:27;;;;;;;9.63;3.83;;;6.70;67.20;;;;;;5036548;28;20037;-86
2021/10/29 03:41:22;;;;;;;6.50;3.73;;;6.60;67.20;;;;;;5054473;28;20541;-86
2021/10/29 03:46:32;;;;;;;8.27;4.13;;;6.50;67.30;;;;;;5054219;28;20404;-87
2021/10/29 03:51:29;;;;;;;11.90;5.53;;;6.50;67.30;;;;;;5065909;28;20021;-86
2021/10/29 03:56:30;;;;;;;26.90;17.27;;;6.50;67.20;;;;;;5056642;28;20033;-86
2021/10/29 03:58:59;;;;;;;30.10;20.03;;;6.50;67.20;;;;;;5037901;28;20079;-86
2021/10/29 04:01:25;;;;;;;12.80;5.23;;;6.40;67.10;;;;;;5034972;28;20021;-86
2021/10/29 04:03:50;;;;;;;6.83;3.60;;;6.40;67.00;;;;;;5051535;28;20040;-86
2021/10/29 04:06:16;;;;;;;10.33;3.20;;;6.30;67.20;;;;;;5034662;28;20033;-86
2021/10/29 04:08:43;;;;;;;6.80;3.23;;;6.30;67.70;;;;;;5048196;28;20040;-85
2021/10/29 04:11:09;;;;;;;6.67;3.27;;;6.40;67.80;;;;;;5050311;28;20040;-86
2021/10/29 04:13:37;;;;;;;8.00;2.93;;;6.30;67.70;;;;;;5036909;28;20044;-86
2021/10/29 04:16:05;;;;;;;6.57;3.87;;;6.30;68.30;;;;;;5053590;28;20032;-85
2021/10/29 04:18:33;;;;;;;13.80;9.67;;;6.30;68.30;;;;;;5040718;28;20025;-86
2021/10/29 04:21:00;;;;;;;13.37;7.40;;;6.40;68.10;;;;;;5044239;28;20044;-85
2021/10/29 04:23:25;;;;;;;9.63;4.63;;;6.30;68.10;;;;;;5035049;28;20082;-85
2021/10/29 04:25:52;;;;;;;6.33;3.73;;;6.40;68.20;;;;;;5035463;28;20037;-85
2021/10/29 04:28:18;;;;;;;8.07;4.67;;;6.40;68.10;;;;;;5034637;28;20472;-86
2021/10/29 04:30:44;;;;;;;9.50;4.37;;;6.40;67.90;;;;;;5035059;28;20464;-85
2021/10/29 04:33:11;;;;;;;11.07;5.70;;;6.40;67.90;;;;;;5035122;28;20065;-86
2021/10/29 04:35:39;;;;;;;9.87;5.00;;;6.30;67.90;;;;;;5035604;28;20040;-85
2021/10/29 04:38:07;;;;;;;8.93;4.87;;;6.30;68.00;;;;;;5041324;28;20028;-85
2021/10/29 04:40:37;;;;;;;9.40;5.27;;;6.40;68.10;;;;;;5045578;28;20032;-86
2021/10/29 04:43:04;;;;;;;9.97;5.57;;;6.40;68.00;;;;;;5033567;28;20025;-86
2021/10/29 04:45:31;;;;;;;11.03;5.40;;;6.40;67.90;;;;;;5049126;28;20027;-86
2021/10/29 04:47:57;;;;;;;7.87;5.93;;;6.30;67.80;;;;;;5034479;28;20033;-86
2021/10/29 04:50:22;;;;;;;13.57;6.30;;;6.30;67.80;;;;;;5035016;28;20396;-86
2021/10/29 04:52:48;;;;;;;9.23;5.67;;;6.30;68.00;;;;;;5032200;28;20068;-86
2021/10/29 04:55:14;;;;;;;11.40;5.90;;;6.30;68.10;;;;;;5025002;28;20033;-86
2021/10/29 04:57:40;;;;;;;11.20;6.07;;;6.20;67.90;;;;;;5048360;28;20043;-86
2021/10/29 05:00:07;;;;;;;17.10;7.20;;;6.20;68.10;;;;;;5028229;28;20170;-86
2021/10/29 05:02:33;;;;;;;13.07;6.67;;;6.20;68.10;;;;;;5053053;28;20040;-86
2021/10/29 05:05:01;;;;;;;13.70;6.87;;;6.20;68.00;;;;;;5033360;28;20052;-86
2021/10/29 05:07:27;;;;;;;15.33;6.63;;;6.10;68.00;;;;;;5034381;28;20028;-86
2021/10/29 05:09:52;;;;;;;13.83;7.27;;;6.10;68.20;;;;;;5052933;28;20029;-86
2021/10/29 05:12:18;;;;;;;14.23;8.30;;;6.10;68.30;;;;;;5035160;28;20047;-87
2021/10/29 05:14:44;;;;;;;12.63;6.70;;;6.20;68.20;;;;;;5035111;28;20025;-86
2021/10/29 05:17:09;;;;;;;12.20;7.43;;;6.30;68.10;;;;;;5031101;28;20189;-86
2021/10/29 05:19:35;;;;;;;12.03;7.30;;;6.30;67.80;;;;;;5049933;28;20540;-86
2021/10/29 05:22:01;;;;;;;11.97;7.87;;;6.20;67.80;;;;;;5027614;28;20075;-86
2021/10/29 05:24:27;;;;;;;17.03;9.50;;;6.30;67.70;;;;;;5037580;28;20025;-86
2021/10/29 05:26:52;;;;;;;18.90;9.67;;;6.20;67.70;;;;;;5035349;28;20102;-86
2021/10/29 05:29:18;;;;;;;17.97;10.40;;;6.20;67.90;;;;;;5033773;28;20029;-86
2021/10/29 05:31:45;;;;;;;17.00;9.10;;;6.20;68.00;;;;;;5036261;28;20412;-87
2021/10/29 05:34:11;;;;;;;16.67;8.20;;;6.10;68.20;;;;;;5033897;28;20029;-87
2021/10/29 05:36:37;;;;;;;22.03;11.53;;;6.10;68.40;;;;;;5032367;28;20484;-86
2021/10/29 05:39:05;;;;;;;22.87;12.83;;;6.10;68.50;;;;;;5021890;28;20027;-86
2021/10/29 05:41:32;;;;;;;19.57;11.83;;;6.10;68.50;;;;;;5030860;28;20029;-86
2021/10/29 05:44:00;;;;;;;24.70;12.70;;;5.90;68.60;;;;;;5051160;28;20029;-87
2021/10/29 05:46:31;;;;;;;17.80;10.63;;;5.90;68.90;;;;;;5052144;28;20036;-86
2021/10/29 05:48:58;;;;;;;20.27;11.07;;;6.00;68.90;;;;;;5033824;28;20066;-86
2021/10/29 05:51:25;;;;;;;19.17;11.23;;;6.00;68.80;;;;;;5033158;28;20083;-87
2021/10/29 05:54:04;;;;;;;19.43;10.40;;;6.10;69.10;;;;;;5037863;28;20029;-86
2021/10/29 05:56:30;;;;;;;18.47;10.70;;;6.00;69.10;;;;;;5025298;28;20037;-86
2021/10/29 05:58:56;;;;;;;20.07;12.30;;;6.00;69.00;;;;;;5052537;28;20036;-86
2021/10/29 06:01:25;;;;;;;18.67;11.67;;;6.10;68.90;;;;;;5034350;28;20139;-87
2021/10/29 06:03:51;;;;;;;17.90;9.03;;;6.10;68.80;;;;;;5051714;28;20022;-86
2021/10/29 06:06:17;;;;;;;13.03;8.00;;;6.10;68.80;;;;;;5033671;28;20033;-86
2021/10/29 06:08:43;;;;;;;21.73;10.20;;;6.00;69.20;;;;;;5033549;28;20025;-85
2021/10/29 06:11:09;;;;;;;18.97;9.40;;;6.10;69.30;;;;;;5051021;28;20028;-86
2021/10/29 06:13:34;;;;;;;18.70;9.47;;;6.10;69.10;;;;;;5033313;28;20040;-87
2021/10/29 06:16:00;;;;;;;19.17;11.30;;;6.00;69.10;;;;;;5050620;28;20040;-86
2021/10/29 06:18:27;;;;;;;20.17;9.73;;;6.10;69.00;;;;;;5034071;28;20480;-87
2021/10/29 06:20:55;;;;;;;15.57;9.60;;;6.10;68.90;;;;;;5050389;28;20037;-86
2021/10/29 06:23:25;;;;;;;18.77;8.60;;;6.10;68.70;;;;;;5034301;28;20022;-86
2021/10/29 06:25:51;;;;;;;16.57;8.93;;;6.00;68.60;;;;;;5023351;28;20068;-86
2021/10/29 06:28:23;;;;;;;15.30;8.67;;;5.90;69.00;;;;;;5034019;28;20546;-85
2021/10/29 06:30:50;;;;;;;14.45;8.93;;;5.90;68.90;;;;;;5024477;28;20025;-88
2021/10/29 06:33:19;;;;;;;14.33;8.00;;;5.90;68.90;;;;;;5033501;28;21182;-87
2021/10/29 06:35:46;;;;;;;17.50;8.67;;;5.90;68.90;;;;;;5032572;28;20052;-87
2021/10/29 06:38:13;;;;;;;12.77;8.20;;;6.00;68.90;;;;;;5049690;28;20480;-85
2021/10/29 06:40:46;;;;;;;14.00;8.53;;;6.00;68.80;;;;;;5052573;28;20094;-86
2021/10/29 06:46:21;;;;;;;18.27;7.90;;;5.90;68.70;;;;;;4998428;28;20043;-86
2021/10/29 06:48:52;;;;;;;15.43;8.83;;;5.90;68.60;;;;;;5014945;28;20049;-88
2021/10/29 07:05:09;;;;;;;16.10;9.83;;;5.90;68.70;;;;;;5054661;28;20078;-85
2021/10/29 07:39:57;;;;;;;26.13;10.50;;;6.00;68.80;;;;;;5058039;28;20086;-85
2021/10/29 07:40:33;;;;;;;12.33;6.57;;;6.10;69.50;;;;;;5051921;28;20041;-86
2021/10/29 07:43:02;;;;;;;11.30;6.73;;;6.20;69.60;;;;;;5059427;28;20447;-84
2021/10/29 07:45:28;;;;;;;10.97;7.07;;;6.20;69.30;;;;;;5035840;28;20063;-85
2021/10/29 07:47:58;;;;;;;13.43;7.33;;;6.30;69.30;;;;;;5035960;28;20025;-84
2021/10/29 07:50:25;;;;;;;14.73;7.80;;;6.30;69.30;;;;;;5035468;28;20025;-85
2021/10/29 07:52:53;;;;;;;11.67;7.07;;;6.30;69.30;;;;;;5072765;28;20044;-83
2021/10/29 07:55:22;;;;;;;15.43;8.00;;;6.30;69.50;;;;;;5040771;28;20491;-85
2021/10/29 07:57:49;;;;;;;12.37;7.10;;;6.40;69.50;;;;;;5049009;28;20430;-85
2021/10/29 08:00:17;;;;;;;11.77;6.93;;;6.40;69.50;;;;;;5044371;28;20021;-84
2021/10/29 08:02:49;;;;;;;13.10;7.77;;;6.40;69.60;;;;;;5044878;28;20056;-85
2021/10/29 08:05:15;;;;;;;11.60;6.77;;;6.40;69.70;;;;;;5058830;28;20032;-86
2021/10/29 08:07:41;;;;;;;11.70;8.03;;;6.50;69.90;;;;;;5062993;28;20029;-85
2021/10/29 08:10:09;;;;;;;15.43;7.93;;;6.50;70.00;;;;;;5035211;28;20071;-86
2021/10/29 08:12:36;;;;;;;11.87;7.40;;;6.50;70.20;;;;;;5039156;28;20029;-85
2021/10/29 08:15:08;;;;;;;16.47;6.97;;;6.70;70.30;;;;;;5036877;28;20028;-86
2021/10/29 08:17:36;;;;;;;17.67;7.05;;;7.20;69.80;;;;;;5036149;28;20033;-86
2021/10/29 08:20:04;;;;;;;13.73;6.97;;;9.40;66.40;;;;;;5034727;28;20029;-86
2021/10/29 08:22:30;;;;;;;11.57;5.80;;;11.70;60.60;;;;;;5039455;28;20684;-86
2021/10/29 08:24:57;;;;;;;8.75;5.93;;;12.80;59.10;;;;;;5057529;28;20075;-87
2021/10/29 08:27:24;;;;;;;14.48;6.28;;;13.70;59.10;;;;;;5037863;28;20052;-87
2021/10/29 08:29:50;;;;;;;11.35;6.25;;;14.70;58.30;;;;;;5054013;28;20028;-87
2021/10/29 08:32:15;;;;;;;7.30;4.68;;;15.10;57.80;;;;;;5040555;28;20045;-86
2021/10/29 08:34:42;;;;;;;8.88;4.78;;;15.20;58.10;;;;;;5041859;28;20090;-87
2021/10/29 08:37:09;;;;;;;8.85;4.55;;;15.30;57.80;;;;;;5038877;28;20515;-86
2021/10/29 08:39:38;;;;;;;7.18;5.47;;;15.00;57.50;;;;;;5036711;28;20025;-87
2021/10/29 08:42:06;;;;;;;6.95;5.60;;;14.70;57.30;;;;;;5037354;28;20029;-84
2021/10/29 08:44:33;;;;;;;10.18;4.43;;;14.40;57.00;;;;;;5041325;28;20028;-86
2021/10/29 08:47:01;;;;;;;7.45;4.90;;;14.10;56.50;;;;;;5029303;28;20047;-87
2021/10/29 08:49:31;;;;;;;5.72;4.13;;;13.80;56.00;;;;;;5039752;28;20206;-87
2021/10/29 08:51:57;;;;;;;4.85;3.28;;;13.60;55.50;;;;;;5061331;28;20040;-86
2021/10/29 08:54:23;;;;;;;4.38;3.22;;;13.20;54.70;;;;;;5038269;28;20503;-86
2021/10/29 08:56:50;;;;;;;7.80;4.00;;;13.10;54.60;;;;;;5035697;28;20021;-87
2021/10/29 08:59:25;;;;;;;4.93;3.22;;;13.10;54.50;;;;;;5036001;28;20104;-87
2021/10/29 09:02:14;;;;;;;5.10;2.75;;;13.10;54.20;;;;;;5044030;28;20012;-86
2021/10/29 09:35:24;;;;;;;5.50;3.40;;;14.20;51.40;;;;;;5050383;28;20056;-87
2021/10/29 09:37:58;;;;;;;5.75;3.30;;;14.10;51.50;;;;;;5026993;28;20115;-86
2021/10/29 09:40:25;;;;;;;4.80;3.25;;;14.30;51.90;;;;;;5034733;28;20526;-87
2021/10/29 09:42:53;;;;;;;4.65;2.63;;;14.50;51.30;;;;;;5053481;28;20479;-86
2021/10/29 09:45:24;;;;;;;9.55;2.90;;;14.50;50.80;;;;;;5052191;28;20036;-87
2021/10/29 09:48:09;;;;;;;3.72;2.53;;;14.60;51.20;;;;;;5035230;28;20095;-86
2021/10/29 09:50:37;;;;;;;7.05;2.95;;;14.70;51.00;;;;;;5020411;28;20041;-86
2021/10/29 09:53:23;;;;;;;3.80;2.40;;;14.80;50.60;;;;;;5030191;28;20467;-86
2021/10/29 09:56:04;;;;;;;6.20;2.83;;;15.00;49.70;;;;;;5054505;28;20033;-87
2021/10/29 09:58:30;;;;;;;4.47;2.80;;;15.20;49.60;;;;;;5034874;28;20088;-86
2021/10/29 10:00:58;;;;;;;6.18;3.38;;;15.10;48.90;;;;;;5034899;28;21000;-86
2021/10/29 10:03:25;;;;;;;8.52;3.70;;;15.10;48.80;;;;;;5032218;28;20106;-87
2021/10/29 10:05:54;;;;;;;6.43;3.63;;;15.10;48.50;;;;;;5031367;28;20037;-87
2021/10/29 10:08:26;;;;;;;5.82;3.92;;;15.20;48.40;;;;;;5033457;28;20488;-87
2021/10/29 10:10:53;;;;;;;7.53;4.15;;;15.30;48.30;;;;;;5032665;28;20033;-87
2021/10/29 10:13:20;;;;;;;12.30;5.63;;;15.40;48.60;;;;;;5033446;28;20039;-87
2021/10/29 10:15:47;;;;;;;10.40;4.70;;;15.70;48.50;;;;;;5036563;28;20116;-87
2021/10/29 10:18:15;;;;;;;9.63;4.57;;;15.70;47.90;;;;;;5050619;28;20433;-87
2021/10/29 10:20:43;;;;;;;11.40;4.63;;;15.70;48.20;;;;;;5033879;28;20032;-87
2021/10/29 10:23:14;;;;;;;8.77;3.63;;;16.00;48.10;;;;;;5033664;28;20108;-87
2021/10/29 10:25:48;;;;;;;7.22;3.78;;;16.20;47.70;;;;;;5048654;28;20383;-87
2021/10/29 10:28:38;;;;;;;4.38;2.97;;;16.20;47.40;;;;;;5032886;28;20506;-88
2021/10/29 10:47:36;;;;;;;11.70;4.93;;;16.70;46.00;;;;;;5055255;28;20060;-88
2021/10/29 10:50:26;;;;;;;9.63;4.60;;;16.70;45.40;;;;;;5034466;28;20040;-88
2021/10/29 10:53:10;;;;;;;13.18;4.20;;;16.60;45.30;;;;;;5036291;28;20029;-87
2021/10/29 10:56:04;;;;;;;6.63;3.88;;;16.60;46.00;;;;;;5042823;28;20110;-87
2021/10/29 11:04:39;;;;;;;7.05;2.80;;;16.60;45.40;;;;;;5056431;28;20053;-88
2021/10/29 11:09:56;;;;;;;10.70;4.20;;;16.50;45.80;;;;;;5056815;28;20113;-88
2021/10/29 11:12:23;;;;;;;8.90;4.47;;;16.70;46.20;;;;;;5040207;28;20380;-88
2021/10/29 11:15:25;;;;;;;6.95;4.75;;;16.80;45.60;;;;;;5035915;28;20112;-88
2021/10/29 11:17:58;;;;;;;8.82;4.47;;;16.80;46.00;;;;;;5018087;28;20044;-85
2021/10/29 11:20:40;;;;;;;7.35;3.95;;;16.90;46.20;;;;;;5048313;28;20067;-86
2021/10/29 11:23:16;;;;;;;9.27;3.75;;;16.80;45.80;;;;;;5036749;28;20037;-88
2021/10/29 11:26:03;;;;;;;10.00;3.40;;;16.80;45.90;;;;;;5046817;28;20035;-89
2021/10/29 11:28:42;;;;;;;9.13;3.72;;;16.90;45.50;;;;;;5051397;28;20021;-88
2021/10/29 11:31:13;;;;;;;11.68;4.35;;;16.90;45.70;;;;;;5034477;28;20195;-86
2021/10/29 11:33:43;;;;;;;9.20;4.18;;;17.10;45.60;;;;;;5038121;28;20029;-85
2021/10/29 11:36:11;;;;;;;10.30;3.53;;;17.20;45.40;;;;;;5037613;28;20025;-86
2021/10/29 11:38:40;;;;;;;5.65;3.15;;;17.10;44.70;;;;;;5036385;28;20506;-86
2021/10/29 11:41:14;;;;;;;7.80;2.88;;;17.10;44.60;;;;;;5033223;28;20108;-86
2021/10/29 11:43:40;;;;;;;7.70;3.33;;;17.10;44.80;;;;;;5037926;28;20040;-87
2021/10/29 11:46:13;;;;;;;6.53;3.05;;;17.20;44.90;;;;;;5037919;28;20029;-86
2021/10/29 11:48:51;;;;;;;8.13;3.13;;;17.30;45.20;;;;;;5052650;28;20041;-86
2021/10/29 11:51:18;;;;;;;6.30;3.10;;;17.40;45.20;;;;;;5036155;28;20079;-86
2021/10/29 11:54:17;;;;;;;6.43;3.03;;;17.40;45.20;;;;;;5035755;28;20500;-86
2021/10/29 12:07:30;;;;;;;7.03;2.95;;;17.60;45.40;;;;;;5054277;28;20526;-86
2021/10/29 12:10:04;;;;;;;9.25;3.05;;;17.50;45.50;;;;;;5034845;28;20033;-87
2021/10/29 12:12:32;;;;;;;4.43;2.90;;;17.60;45.10;;;;;;5035865;28;20021;-87
2021/10/29 12:15:07;;;;;;;5.35;2.83;;;17.60;45.00;;;;;;5035334;28;20037;-87
2021/10/29 12:17:40;;;;;;;5.82;3.70;;;17.70;44.90;;;;;;5035833;28;20061;-86
2021/10/29 12:20:09;;;;;;;5.78;3.00;;;17.70;44.90;;;;;;5048824;28;20476;-86
2021/10/29 12:22:40;;;;;;;9.60;3.38;;;17.80;44.80;;;;;;5030648;28;20488;-86
2021/10/29 12:25:28;;;;;;;5.47;3.38;;;17.90;44.80;;;;;;5039981;28;20032;-87
2021/10/29 12:38:37;;;;;;;8.77;2.75;;;18.00;44.10;;;;;;5044342;28;20071;-86
2021/10/29 13:01:39;;;;;;;6.47;3.08;;;18.20;43.90;;;;;;5057459;28;20427;-86
2021/10/29 13:04:05;;;;;;;10.73;4.47;;;18.30;44.00;;;;;;5029213;28;20025;-87
2021/10/29 13:06:45;;;;;;;8.40;3.78;;;18.20;43.60;;;;;;5050773;28;20035;-86
2021/10/29 13:09:15;;;;;;;5.35;3.20;;;18.20;43.70;;;;;;5036238;28;20098;-86
2021/10/29 13:11:57;;;;;;;9.15;5.05;;;18.20;43.80;;;;;;5039294;28;20396;-86
2021/10/29 13:16:59;;;;;;;8.27;4.45;;;18.20;43.70;;;;;;5052379;28;20048;-86
2021/10/29 13:52:27;;;;;;;7.65;3.33;;;18.00;44.50;;;;;;5050543;28;20092;-88
2021/10/29 13:55:03;;;;;;;6.47;3.35;;;18.00;44.50;;;;;;5052744;28;20319;-88
2021/10/29 13:57:48;;;;;;;6.00;2.38;;;18.00;44.60;;;;;;5034206;28;20029;-88
2021/10/29 14:00:43;;;;;;;9.77;2.95;;;17.90;44.60;;;;;;5034513;28;20075;-88
2021/10/29 14:24:26;;;;;;;8.25;3.47;;;17.10;46.40;;;;;;5051544;28;20043;-88
2021/10/29 14:35:22;;;;;;;11.00;5.10;;;16.70;48.60;;;;;;5052072;28;20384;-88
2021/10/29 14:42:58;;;;;;;8.80;4.03;;;16.60;49.30;;;;;;5051832;28;20017;-88
2021/10/29 15:05:15;;;;;;;11.20;6.78;;;15.70;52.30;;;;;;5045580;28;20511;-88
2021/10/29 15:27:10;;;;;;;11.93;6.17;;;15.40;52.40;;;;;;5058843;28;20066;-87
2021/10/29 15:42:51;;;;;;;8.27;5.10;;;15.10;53.00;;;;;;5047818;28;20060;-87
2021/10/29 15:45:35;;;;;;;;;;;15.10;53.10;;;;;;5032304;28;20033;-88
2021/10/29 15:48:07;;;;;;;10.43;6.10;;;15.10;53.10;;;;;;5033277;28;20368;-88
2021/10/29 15:50:35;;;;;;;13.18;5.68;;;15.00;53.30;;;;;;5035819;28;20037;-88
2021/10/29 15:53:07;;;;;;;13.37;5.13;;;14.90;53.50;;;;;;5039079;28;20037;-88
2021/10/29 15:58:47;;;;;;;22.83;7.90;;;14.80;53.60;;;;;;5035916;28;20055;-87
2021/10/29 16:01:22;;;;;;;11.53;6.13;;;14.80;53.50;;;;;;5036717;28;20025;-88
2021/10/29 16:17:42;;;;;;;27.17;11.90;;;14.40;54.40;;;;;;5051906;28;20403;-88
2021/10/29 16:20:08;;;;;;;17.80;7.97;;;14.30;54.60;;;;;;5051725;28;20112;-87
2021/10/29 16:22:35;;;;;;;18.17;8.80;;;14.30;54.80;;;;;;5035929;28;20139;-88
2021/10/29 16:27:43;;;;;;;16.20;11.50;;;14.10;55.30;;;;;;5052608;28;20033;-88
2021/10/29 16:30:10;;;;;;;22.73;11.97;;;14.00;55.10;;;;;;5033560;28;20036;-88
2021/10/29 16:33:24;;;;;;;23.27;14.23;;;14.00;55.10;;;;;;5038608;28;20487;-88
2021/10/29 16:35:26;;;;;;;27.10;15.10;;;13.90;55.20;;;;;;5045583;28;20037;-88
2021/10/29 16:38:11;;;;;;;28.50;19.03;;;13.90;55.30;;;;;;5051181;28;20021;-88
2021/10/29 16:40:38;;;;;;;27.40;19.93;;;13.90;55.30;;;;;;5041063;28;20064;-88
2021/10/29 16:43:07;;;;;;;26.30;18.93;;;13.90;55.40;;;;;;5052941;28;20536;-88
2021/10/29 16:45:36;;;;;;;23.90;14.40;;;13.80;55.60;;;;;;5034485;28;20040;-88
2021/10/29 16:48:02;;;;;;;23.53;14.53;;;13.70;55.50;;;;;;5032830;28;20082;-89
2021/10/29 16:50:28;;;;;;;22.60;13.77;;;13.70;55.60;;;;;;5027030;28;20446;-88
2021/10/29 16:52:53;;;;;;;30.67;14.47;;;13.70;55.80;;;;;;5036541;28;20029;-89
2021/10/29 16:55:19;;;;;;;18.57;10.97;;;13.70;55.60;;;;;;5039499;28;20029;-88
2021/10/29 16:57:45;;;;;;;22.17;13.27;;;13.60;55.80;;;;;;5033759;28;20116;-88
2021/10/29 17:00:13;;;;;;;18.33;12.17;;;13.60;56.00;;;;;;5020223;28;20028;-88
2021/10/29 17:02:39;;;;;;;22.60;13.33;;;13.60;56.00;;;;;;5053266;28;20096;-88
2021/10/29 17:05:06;;;;;;;18.40;12.17;;;13.50;56.10;;;;;;5035332;28;20021;-88
2021/10/29 17:07:32;;;;;;;22.37;12.30;;;13.50;56.30;;;;;;5039832;28;20433;-88
2021/10/29 17:10:06;;;;;;;17.53;10.70;;;13.40;56.30;;;;;;5042406;28;20021;-88
2021/10/29 17:12:32;;;;;;;16.27;10.00;;;13.40;56.50;;;;;;5052408;28;20064;-88
2021/10/29 17:14:57;;;;;;;16.40;10.60;;;13.40;56.50;;;;;;5035764;28;20083;-88
2021/10/29 17:17:23;;;;;;;14.57;10.10;;;13.40;56.70;;;;;;5034249;28;20029;-88
2021/10/29 17:19:49;;;;;;;15.40;9.63;;;13.30;56.80;;;;;;5053835;28;20020;-89
2021/10/29 17:22:15;;;;;;;26.40;14.53;;;13.20;57.10;;;;;;5046016;28;20013;-88
2021/10/29 17:24:40;;;;;;;24.23;14.37;;;13.20;57.30;;;;;;5035473;28;20543;-88
2021/10/29 17:27:06;;;;;;;33.23;17.47;;;13.10;57.80;;;;;;5051119;28;20032;-88
2021/10/29 17:29:33;;;;;;;27.73;15.00;;;13.10;57.30;;;;;;5041461;28;20028;-88
2021/10/29 17:32:01;;;;;;;26.83;14.33;;;13.10;57.40;;;;;;5055495;28;20059;-88
2021/10/29 17:34:27;;;;;;;54.40;30.03;;;13.00;57.30;;;;;;5035522;28;20025;-89
2021/10/29 17:36:53;;;;;;;42.13;26.90;;;13.10;57.30;;;;;;5053253;28;20029;-88
2021/10/29 17:39:20;;;;;;;46.40;25.17;;;13.10;57.30;;;;;;5034448;28;20108;-89
2021/10/29 17:41:47;;;;;;;36.10;18.83;;;13.10;57.30;;;;;;5034798;28;20423;-88
2021/10/29 17:44:15;;;;;;;32.37;19.80;;;13.00;57.30;;;;;;5035484;28;20032;-88
2021/10/29 17:46:41;;;;;;;17.67;12.00;;;12.90;57.50;;;;;;5036728;28;20394;-88
2021/10/29 17:49:09;;;;;;;22.17;10.97;;;12.90;57.50;;;;;;5033451;28;20029;-88
2021/10/29 17:51:35;;;;;;;21.30;13.27;;;12.90;57.50;;;;;;5035904;28;20032;-87